sensor_id;sensor_type;location;lat;lon;timestamp;temperature;humidity
29207;DHT22;16247;50.840;4.382;2022-12-07T00:01:14;6.80;99.90
29207;DHT22;16247;50.840;4.382;2022-12-07T00:03:45;6.90;99.90
29207;DHT22;16247;50.840;4.382;2022-12-07T00:06:15;7.00;99.90
29207;DHT22;16247;50.840;4.382;2022-12-07T00:08:44;6.60;99.90
29207;DHT22;16247;50.840;4.382;2022-12-07T00:11:13;6.70;99.90
29207;DHT22;16247;50.840;4.382;2022-12-07T00:13:40;6.70;99.90
29207;DHT22;16247;50.840;4.382;2022-12-07T00:16:17;6.60;99.90
29207;DHT22;16247;50.840;4.382;2022-12-07T00:18:45;6.80;99.90
29207;DHT22;16247;50.840;4.382;2022-12-07T00:21:21;6.60;99.90
29207;DHT22;16247;50.840;4.382;2022-12-07T00:23:50;6.50;99.90
29207;DHT22;16247;50.840;4.382;2022-12-07T00:26:24;6.50;99.90
29207;DHT22;16247;50.840;4.382;2022-12-07T00:28:53;6.70;99.90
29207;DHT22;16247;50.840;4.382;2022-12-07T00:31:20;6.40;99.90
29207;DHT22;16247;50.840;4.382;2022-12-07T00:33:47;6.40;99.90
29207;DHT22;16247;50.840;4.382;2022-12-07T00:36:23;6.70;99.90
29207;DHT22;16247;50.840;4.382;2022-12-07T00:38:50;6.80;99.90
29207;DHT22;16247;50.840;4.382;2022-12-07T00:41:27;6.50;99.90
29207;DHT22;16247;50.840;4.382;2022-12-07T00:43:54;6.50;99.90
29207;DHT22;16247;50.840;4.382;2022-12-07T00:46:21;6.40;99.90
29207;DHT22;16247;50.840;4.382;2022-12-07T00:48:49;6.40;99.90
29207;DHT22;16247;50.840;4.382;2022-12-07T00:51:16;6.60;99.90
29207;DHT22;16247;50.840;4.382;2022-12-07T00:53:44;6.40;99.90
29207;DHT22;16247;50.840;4.382;2022-12-07T00:56:25;6.40;99.90
29207;DHT22;16247;50.840;4.382;2022-12-07T00:58:59;6.20;99.90
29207;DHT22;16247;50.840;4.382;2022-12-07T01:01:27;6.20;99.90
29207;DHT22;16247;50.840;4.382;2022-12-07T01:03:54;6.40;99.90
29207;DHT22;16247;50.840;4.382;2022-12-07T01:06:21;6.30;99.90
29207;DHT22;16247;50.840;4.382;2022-12-07T01:08:47;6.50;99.90
29207;DHT22;16247;50.840;4.382;2022-12-07T01:11:18;6.40;99.90
29207;DHT22;16247;50.840;4.382;2022-12-07T01:13:45;6.40;99.90
29207;DHT22;16247;50.840;4.382;2022-12-07T01:16:13;6.30;99.90
29207;DHT22;16247;50.840;4.382;2022-12-07T01:18:40;6.30;99.90
29207;DHT22;16247;50.840;4.382;2022-12-07T01:21:14;6.20;99.90
29207;DHT22;16247;50.840;4.382;2022-12-07T01:23:41;6.10;99.90
29207;DHT22;16247;50.840;4.382;2022-12-07T01:26:11;6.40;99.90
29207;DHT22;16247;50.840;4.382;2022-12-07T01:28:38;6.30;99.90
29207;DHT22;16247;50.840;4.382;2022-12-07T01:31:09;6.30;99.90
29207;DHT22;16247;50.840;4.382;2022-12-07T01:33:42;6.60;99.90
29207;DHT22;16247;50.840;4.382;2022-12-07T01:36:41;6.40;99.90
29207;DHT22;16247;50.840;4.382;2022-12-07T01:39:29;6.30;99.90
29207;DHT22;16247;50.840;4.382;2022-12-07T01:41:59;6.10;99.90
29207;DHT22;16247;50.840;4.382;2022-12-07T01:44:29;6.40;99.90
29207;DHT22;16247;50.840;4.382;2022-12-07T01:47:03;6.20;99.90
29207;DHT22;16247;50.840;4.382;2022-12-07T01:49:37;6.50;99.90
29207;DHT22;16247;50.840;4.382;2022-12-07T01:52:16;6.30;99.90
29207;DHT22;16247;50.840;4.382;2022-12-07T01:54:53;6.60;99.90
29207;DHT22;16247;50.840;4.382;2022-12-07T01:57:22;6.50;99.90
29207;DHT22;16247;50.840;4.382;2022-12-07T01:59:51;6.50;99.90
29207;DHT22;16247;50.840;4.382;2022-12-07T02:03:02;6.50;99.90
29207;DHT22;16247;50.840;4.382;2022-12-07T02:05:08;6.50;99.90
29207;DHT22;16247;50.840;4.382;2022-12-07T02:07:39;6.50;99.90
29207;DHT22;16247;50.840;4.382;2022-12-07T02:10:33;6.40;99.90
29207;DHT22;16247;50.840;4.382;2022-12-07T02:13:10;6.60;99.90
29207;DHT22;16247;50.840;4.382;2022-12-07T02:16:03;6.30;99.90
29207;DHT22;16247;50.840;4.382;2022-12-07T02:18:44;6.40;99.90
29207;DHT22;16247;50.840;4.382;2022-12-07T02:21:51;6.40;99.90
29207;DHT22;16247;50.840;4.382;2022-12-07T02:32:51;6.40;99.90
29207;DHT22;16247;50.840;4.382;2022-12-07T02:35:55;6.50;99.90
29207;DHT22;16247;50.840;4.382;2022-12-07T02:38:26;6.40;99.90
29207;DHT22;16247;50.840;4.382;2022-12-07T02:41:10;6.60;99.90
29207;DHT22;16247;50.840;4.382;2022-12-07T02:43:46;6.40;99.90
29207;DHT22;16247;50.840;4.382;2022-12-07T02:46:34;6.40;99.90
29207;DHT22;16247;50.840;4.382;2022-12-07T02:49:02;6.40;99.90
29207;DHT22;16247;50.840;4.382;2022-12-07T02:51:34;6.50;99.90
29207;DHT22;16247;50.840;4.382;2022-12-07T02:54:12;6.50;99.90
29207;DHT22;16247;50.840;4.382;2022-12-07T03:04:39;6.40;99.90
29207;DHT22;16247;50.840;4.382;2022-12-07T03:07:29;6.40;99.90
29207;DHT22;16247;50.840;4.382;2022-12-07T03:10:06;6.40;99.90
29207;DHT22;16247;50.840;4.382;2022-12-07T03:16:14;6.30;99.90
29207;DHT22;16247;50.840;4.382;2022-12-07T03:19:14;6.50;99.90
29207;DHT22;16247;50.840;4.382;2022-12-07T03:22:11;6.50;99.90
29207;DHT22;16247;50.840;4.382;2022-12-07T03:24:50;6.50;99.90
29207;DHT22;16247;50.840;4.382;2022-12-07T03:27:31;6.30;99.90
29207;DHT22;16247;50.840;4.382;2022-12-07T03:29:59;6.30;99.90
29207;DHT22;16247;50.840;4.382;2022-12-07T03:32:45;6.40;99.90
29207;DHT22;16247;50.840;4.382;2022-12-07T03:35:52;6.30;99.90
29207;DHT22;16247;50.840;4.382;2022-12-07T03:38:23;6.40;99.90
29207;DHT22;16247;50.840;4.382;2022-12-07T03:41:09;6.30;99.90
29207;DHT22;16247;50.840;4.382;2022-12-07T03:43:42;6.30;99.90
29207;DHT22;16247;50.840;4.382;2022-12-07T03:51:59;6.20;99.90
29207;DHT22;16247;50.840;4.382;2022-12-07T03:54:28;6.20;99.90
29207;DHT22;16247;50.840;4.382;2022-12-07T03:56:57;6.50;99.90
29207;DHT22;16247;50.840;4.382;2022-12-07T03:59:25;6.40;99.90
29207;DHT22;16247;50.840;4.382;2022-12-07T04:01:56;6.50;99.90
29207;DHT22;16247;50.840;4.382;2022-12-07T04:04:24;6.30;99.90
29207;DHT22;16247;50.840;4.382;2022-12-07T04:06:59;6.20;99.90
29207;DHT22;16247;50.840;4.382;2022-12-07T04:09:33;6.40;99.90
29207;DHT22;16247;50.840;4.382;2022-12-07T04:12:05;6.30;99.90
29207;DHT22;16247;50.840;4.382;2022-12-07T04:14:31;6.20;99.90
29207;DHT22;16247;50.840;4.382;2022-12-07T04:16:59;6.30;99.90
29207;DHT22;16247;50.840;4.382;2022-12-07T04:19:35;6.20;99.90
29207;DHT22;16247;50.840;4.382;2022-12-07T04:22:03;6.20;99.90
29207;DHT22;16247;50.840;4.382;2022-12-07T04:24:31;6.30;99.90
29207;DHT22;16247;50.840;4.382;2022-12-07T04:26:57;6.10;99.90
29207;DHT22;16247;50.840;4.382;2022-12-07T04:29:26;6.10;99.90
29207;DHT22;16247;50.840;4.382;2022-12-07T04:31:52;6.00;99.90
29207;DHT22;16247;50.840;4.382;2022-12-07T04:34:23;6.00;99.90
29207;DHT22;16247;50.840;4.382;2022-12-07T04:36:50;6.00;99.90
29207;DHT22;16247;50.840;4.382;2022-12-07T04:39:22;6.10;99.90
29207;DHT22;16247;50.840;4.382;2022-12-07T04:41:49;5.90;99.90
29207;DHT22;16247;50.840;4.382;2022-12-07T04:44:18;5.80;99.90
29207;DHT22;16247;50.840;4.382;2022-12-07T04:46:44;5.90;99.90
29207;DHT22;16247;50.840;4.382;2022-12-07T04:49:10;5.80;99.90
29207;DHT22;16247;50.840;4.382;2022-12-07T04:51:37;6.00;99.90
29207;DHT22;16247;50.840;4.382;2022-12-07T04:54:03;6.10;99.90
29207;DHT22;16247;50.840;4.382;2022-12-07T04:56:29;6.00;99.90
29207;DHT22;16247;50.840;4.382;2022-12-07T04:58:55;6.30;99.90
29207;DHT22;16247;50.840;4.382;2022-12-07T05:01:22;6.10;99.90
29207;DHT22;16247;50.840;4.382;2022-12-07T05:03:48;6.10;99.90
29207;DHT22;16247;50.840;4.382;2022-12-07T05:06:14;6.30;99.90
29207;DHT22;16247;50.840;4.382;2022-12-07T05:08:40;6.30;99.90
29207;DHT22;16247;50.840;4.382;2022-12-07T05:11:08;6.40;99.90
29207;DHT22;16247;50.840;4.382;2022-12-07T05:13:34;6.40;99.90
29207;DHT22;16247;50.840;4.382;2022-12-07T05:16:01;6.30;99.90
29207;DHT22;16247;50.840;4.382;2022-12-07T05:18:27;6.20;99.90
29207;DHT22;16247;50.840;4.382;2022-12-07T05:20:59;6.10;99.90
29207;DHT22;16247;50.840;4.382;2022-12-07T05:23:25;6.10;99.90
29207;DHT22;16247;50.840;4.382;2022-12-07T05:25:51;6.00;99.90
29207;DHT22;16247;50.840;4.382;2022-12-07T05:28:19;6.40;99.90
29207;DHT22;16247;50.840;4.382;2022-12-07T05:30:47;6.20;99.90
29207;DHT22;16247;50.840;4.382;2022-12-07T05:33:15;6.40;99.90
29207;DHT22;16247;50.840;4.382;2022-12-07T05:35:42;6.20;99.90
29207;DHT22;16247;50.840;4.382;2022-12-07T05:38:07;6.40;99.90
29207;DHT22;16247;50.840;4.382;2022-12-07T05:40:33;6.30;99.90
29207;DHT22;16247;50.840;4.382;2022-12-07T05:43:00;6.30;99.90
29207;DHT22;16247;50.840;4.382;2022-12-07T05:45:26;6.50;99.90
29207;DHT22;16247;50.840;4.382;2022-12-07T05:47:58;6.00;99.90
29207;DHT22;16247;50.840;4.382;2022-12-07T05:50:33;6.10;99.90
29207;DHT22;16247;50.840;4.382;2022-12-07T05:53:00;6.10;99.90
29207;DHT22;16247;50.840;4.382;2022-12-07T05:55:26;6.30;99.90
29207;DHT22;16247;50.840;4.382;2022-12-07T05:57:57;6.20;99.90
29207;DHT22;16247;50.840;4.382;2022-12-07T06:00:46;6.20;99.90
29207;DHT22;16247;50.840;4.382;2022-12-07T06:03:18;6.40;99.90
29207;DHT22;16247;50.840;4.382;2022-12-07T06:05:44;6.20;99.90
29207;DHT22;16247;50.840;4.382;2022-12-07T06:08:13;6.20;99.90
29207;DHT22;16247;50.840;4.382;2022-12-07T06:10:41;6.10;99.90
29207;DHT22;16247;50.840;4.382;2022-12-07T06:13:24;6.20;99.90
29207;DHT22;16247;50.840;4.382;2022-12-07T06:15:59;6.10;99.90
29207;DHT22;16247;50.840;4.382;2022-12-07T06:18:47;6.50;99.90
29207;DHT22;16247;50.840;4.382;2022-12-07T06:21:36;6.20;99.90
29207;DHT22;16247;50.840;4.382;2022-12-07T06:24:17;6.20;99.90
29207;DHT22;16247;50.840;4.382;2022-12-07T06:27:05;6.40;99.90
29207;DHT22;16247;50.840;4.382;2022-12-07T06:37:48;6.60;99.90
29207;DHT22;16247;50.840;4.382;2022-12-07T06:53:43;6.30;99.90
29207;DHT22;16247;50.840;4.382;2022-12-07T06:56:13;6.30;99.90
29207;DHT22;16247;50.840;4.382;2022-12-07T06:58:53;6.70;99.90
29207;DHT22;16247;50.840;4.382;2022-12-07T07:01:39;6.70;99.90
29207;DHT22;16247;50.840;4.382;2022-12-07T07:04:06;6.80;99.90
29207;DHT22;16247;50.840;4.382;2022-12-07T07:06:59;6.70;99.90
29207;DHT22;16247;50.840;4.382;2022-12-07T07:09:38;6.60;99.90
29207;DHT22;16247;50.840;4.382;2022-12-07T07:12:04;6.50;99.90
29207;DHT22;16247;50.840;4.382;2022-12-07T07:14:37;6.50;99.90
29207;DHT22;16247;50.840;4.382;2022-12-07T08:24:22;6.50;99.90
29207;DHT22;16247;50.840;4.382;2022-12-07T08:27:08;6.50;99.90
29207;DHT22;16247;50.840;4.382;2022-12-07T08:29:36;6.40;99.90
29207;DHT22;16247;50.840;4.382;2022-12-07T08:51:04;6.40;99.90
29207;DHT22;16247;50.840;4.382;2022-12-07T09:19:27;6.80;99.90
29207;DHT22;16247;50.840;4.382;2022-12-07T09:21:54;6.80;99.90
29207;DHT22;16247;50.840;4.382;2022-12-07T09:24:27;6.80;99.90
29207;DHT22;16247;50.840;4.382;2022-12-07T09:26:55;6.90;99.90
29207;DHT22;16247;50.840;4.382;2022-12-07T09:29:20;6.90;99.90
29207;DHT22;16247;50.840;4.382;2022-12-07T09:34:18;7.00;99.90
29207;DHT22;16247;50.840;4.382;2022-12-07T09:36:56;7.10;99.90
29207;DHT22;16247;50.840;4.382;2022-12-07T09:39:39;7.00;99.90
29207;DHT22;16247;50.840;4.382;2022-12-07T09:42:27;7.10;99.90
29207;DHT22;16247;50.840;4.382;2022-12-07T09:45:06;7.10;99.90
29207;DHT22;16247;50.840;4.382;2022-12-07T09:48:14;7.00;99.90
29207;DHT22;16247;50.840;4.382;2022-12-07T10:14:39;7.20;99.90
29207;DHT22;16247;50.840;4.382;2022-12-07T10:20:34;7.30;99.90
29207;DHT22;16247;50.840;4.382;2022-12-07T10:23:15;7.40;99.90
29207;DHT22;16247;50.840;4.382;2022-12-07T10:25:46;7.40;99.90
29207;DHT22;16247;50.840;4.382;2022-12-07T10:28:38;7.40;99.90
29207;DHT22;16247;50.840;4.382;2022-12-07T10:31:25;7.20;99.90
29207;DHT22;16247;50.840;4.382;2022-12-07T10:34:00;7.40;99.90
29207;DHT22;16247;50.840;4.382;2022-12-07T18:22:41;7.00;99.90
29207;DHT22;16247;50.840;4.382;2022-12-07T18:25:13;7.00;99.90
29207;DHT22;16247;50.840;4.382;2022-12-07T18:27:40;7.00;99.90
29207;DHT22;16247;50.840;4.382;2022-12-07T18:30:09;6.90;99.90
29207;DHT22;16247;50.840;4.382;2022-12-07T18:32:35;7.00;99.90
29207;DHT22;16247;50.840;4.382;2022-12-07T18:35:09;7.00;99.90
29207;DHT22;16247;50.840;4.382;2022-12-07T18:37:45;7.20;99.90
29207;DHT22;16247;50.840;4.382;2022-12-07T18:40:20;6.90;99.90
29207;DHT22;16247;50.840;4.382;2022-12-07T18:43:38;7.10;99.90
29207;DHT22;16247;50.840;4.382;2022-12-07T18:46:35;7.10;99.90
29207;DHT22;16247;50.840;4.382;2022-12-07T18:49:38;7.00;99.90
29207;DHT22;16247;50.840;4.382;2022-12-07T18:59:52;6.80;99.90
29207;DHT22;16247;50.840;4.382;2022-12-07T19:02:18;6.90;99.90
29207;DHT22;16247;50.840;4.382;2022-12-07T19:04:45;6.60;99.90
29207;DHT22;16247;50.840;4.382;2022-12-07T19:07:11;6.70;99.90
29207;DHT22;16247;50.840;4.382;2022-12-07T19:09:38;6.60;99.90
29207;DHT22;16247;50.840;4.382;2022-12-07T19:14:49;6.60;99.90
29207;DHT22;16247;50.840;4.382;2022-12-07T19:17:16;6.60;99.90
29207;DHT22;16247;50.840;4.382;2022-12-07T19:19:54;6.80;99.90
29207;DHT22;16247;50.840;4.382;2022-12-07T19:22:22;6.60;99.90
29207;DHT22;16247;50.840;4.382;2022-12-07T19:24:49;6.70;99.90
29207;DHT22;16247;50.840;4.382;2022-12-07T19:27:17;6.90;99.90
29207;DHT22;16247;50.840;4.382;2022-12-07T19:29:46;6.80;99.90
29207;DHT22;16247;50.840;4.382;2022-12-07T19:32:13;7.00;99.90
29207;DHT22;16247;50.840;4.382;2022-12-07T19:34:44;6.80;99.90
29207;DHT22;16247;50.840;4.382;2022-12-07T19:37:14;6.90;99.90
29207;DHT22;16247;50.840;4.382;2022-12-07T19:39:41;7.00;99.90
29207;DHT22;16247;50.840;4.382;2022-12-07T19:53:05;6.80;99.90
29207;DHT22;16247;50.840;4.382;2022-12-07T19:56:15;6.80;99.90
29207;DHT22;16247;50.840;4.382;2022-12-07T19:58:44;6.60;99.90
29207;DHT22;16247;50.840;4.382;2022-12-07T20:01:16;6.50;99.90
29207;DHT22;16247;50.840;4.382;2022-12-07T20:03:56;6.60;99.90
29207;DHT22;16247;50.840;4.382;2022-12-07T20:06:22;6.50;99.90
29207;DHT22;16247;50.840;4.382;2022-12-07T20:08:53;6.70;99.90
29207;DHT22;16247;50.840;4.382;2022-12-07T20:11:19;6.60;99.90
29207;DHT22;16247;50.840;4.382;2022-12-07T20:14:12;6.80;99.90
29207;DHT22;16247;50.840;4.382;2022-12-07T20:19:15;6.40;99.90
29207;DHT22;16247;50.840;4.382;2022-12-07T20:21:42;6.40;99.90
29207;DHT22;16247;50.840;4.382;2022-12-07T20:24:24;6.40;99.90
29207;DHT22;16247;50.840;4.382;2022-12-07T20:32:01;6.50;99.90
29207;DHT22;16247;50.840;4.382;2022-12-07T20:45:13;6.30;99.90
29207;DHT22;16247;50.840;4.382;2022-12-07T20:47:59;6.30;99.90
29207;DHT22;16247;50.840;4.382;2022-12-07T20:50:26;6.30;99.90
29207;DHT22;16247;50.840;4.382;2022-12-07T20:52:59;6.20;99.90
29207;DHT22;16247;50.840;4.382;2022-12-07T20:55:25;6.30;99.90
29207;DHT22;16247;50.840;4.382;2022-12-07T20:57:51;6.30;99.90
29207;DHT22;16247;50.840;4.382;2022-12-07T21:00:20;6.40;99.90
29207;DHT22;16247;50.840;4.382;2022-12-07T21:02:57;6.20;99.90
29207;DHT22;16247;50.840;4.382;2022-12-07T21:05:33;6.20;99.90
29207;DHT22;16247;50.840;4.382;2022-12-07T21:08:03;6.10;99.90
29207;DHT22;16247;50.840;4.382;2022-12-07T21:10:31;6.20;99.90
29207;DHT22;16247;50.840;4.382;2022-12-07T21:12:58;6.20;99.90
29207;DHT22;16247;50.840;4.382;2022-12-07T21:15:24;6.10;99.90
29207;DHT22;16247;50.840;4.382;2022-12-07T21:17:53;6.20;99.90
29207;DHT22;16247;50.840;4.382;2022-12-07T21:20:29;6.20;99.90
29207;DHT22;16247;50.840;4.382;2022-12-07T21:25:35;6.10;99.90
29207;DHT22;16247;50.840;4.382;2022-12-07T21:28:06;6.10;99.90
29207;DHT22;16247;50.840;4.382;2022-12-07T21:30:38;6.10;99.90
29207;DHT22;16247;50.840;4.382;2022-12-07T21:33:27;6.20;99.90
29207;DHT22;16247;50.840;4.382;2022-12-07T21:36:01;6.20;99.90
29207;DHT22;16247;50.840;4.382;2022-12-07T21:38:31;6.30;99.90
29207;DHT22;16247;50.840;4.382;2022-12-07T21:40:57;6.10;99.90
29207;DHT22;16247;50.840;4.382;2022-12-07T21:43:26;6.10;99.90
29207;DHT22;16247;50.840;4.382;2022-12-07T21:45:53;6.40;99.90
29207;DHT22;16247;50.840;4.382;2022-12-07T21:48:30;6.20;99.90
29207;DHT22;16247;50.840;4.382;2022-12-07T21:51:08;6.30;99.90
29207;DHT22;16247;50.840;4.382;2022-12-07T21:53:41;6.20;99.90
29207;DHT22;16247;50.840;4.382;2022-12-07T21:56:32;6.30;99.90
29207;DHT22;16247;50.840;4.382;2022-12-07T22:08:18;6.40;99.90
29207;DHT22;16247;50.840;4.382;2022-12-07T22:10:45;6.30;99.90
29207;DHT22;16247;50.840;4.382;2022-12-07T22:13:11;6.50;99.90
29207;DHT22;16247;50.840;4.382;2022-12-07T22:15:39;6.40;99.90
29207;DHT22;16247;50.840;4.382;2022-12-07T22:18:07;6.40;99.90
29207;DHT22;16247;50.840;4.382;2022-12-07T22:23:56;6.40;99.90
29207;DHT22;16247;50.840;4.382;2022-12-07T22:37:12;6.60;99.90
29207;DHT22;16247;50.840;4.382;2022-12-07T22:39:42;6.60;99.90
29207;DHT22;16247;50.840;4.382;2022-12-07T22:42:09;6.30;99.90
29207;DHT22;16247;50.840;4.382;2022-12-07T22:44:41;6.60;99.90
29207;DHT22;16247;50.840;4.382;2022-12-07T22:47:08;6.40;99.90
29207;DHT22;16247;50.840;4.382;2022-12-07T22:49:34;6.30;99.90
29207;DHT22;16247;50.840;4.382;2022-12-07T22:52:00;6.10;99.90
29207;DHT22;16247;50.840;4.382;2022-12-07T22:54:26;6.20;99.90
29207;DHT22;16247;50.840;4.382;2022-12-07T22:56:51;5.90;99.90
29207;DHT22;16247;50.840;4.382;2022-12-07T22:59:17;6.10;99.90
29207;DHT22;16247;50.840;4.382;2022-12-07T23:01:46;6.00;99.90
29207;DHT22;16247;50.840;4.382;2022-12-07T23:04:11;6.00;99.90
29207;DHT22;16247;50.840;4.382;2022-12-07T23:06:37;6.00;99.90
29207;DHT22;16247;50.840;4.382;2022-12-07T23:09:10;6.00;99.90
29207;DHT22;16247;50.840;4.382;2022-12-07T23:11:39;6.00;99.90
29207;DHT22;16247;50.840;4.382;2022-12-07T23:14:33;6.10;99.90
29207;DHT22;16247;50.840;4.382;2022-12-07T23:16:59;6.00;99.90
29207;DHT22;16247;50.840;4.382;2022-12-07T23:19:25;6.20;99.90
29207;DHT22;16247;50.840;4.382;2022-12-07T23:21:51;6.10;99.90
29207;DHT22;16247;50.840;4.382;2022-12-07T23:24:17;6.00;99.90
29207;DHT22;16247;50.840;4.382;2022-12-07T23:26:43;6.00;99.90
29207;DHT22;16247;50.840;4.382;2022-12-07T23:29:10;5.70;99.90
29207;DHT22;16247;50.840;4.382;2022-12-07T23:31:37;5.70;99.90
29207;DHT22;16247;50.840;4.382;2022-12-07T23:34:03;5.60;99.90
29207;DHT22;16247;50.840;4.382;2022-12-07T23:36:28;5.60;99.90
29207;DHT22;16247;50.840;4.382;2022-12-07T23:38:57;5.80;99.90
29207;DHT22;16247;50.840;4.382;2022-12-07T23:41:26;5.70;99.90
29207;DHT22;16247;50.840;4.382;2022-12-07T23:43:52;5.80;99.90
29207;DHT22;16247;50.840;4.382;2022-12-07T23:46:21;5.60;99.90
29207;DHT22;16247;50.840;4.382;2022-12-07T23:48:48;5.60;99.90
29207;DHT22;16247;50.840;4.382;2022-12-07T23:51:15;5.60;99.90
29207;DHT22;16247;50.840;4.382;2022-12-07T23:53:43;5.50;99.90
29207;DHT22;16247;50.840;4.382;2022-12-07T23:56:14;5.50;99.90
29207;DHT22;16247;50.840;4.382;2022-12-07T23:58:41;5.70;99.90
